createdAt,value
2022-09-25T00:00:55.519Z,12.26
2022-09-25T00:03:24.293Z,12.23
2022-09-25T00:05:51.902Z,12.22
2022-09-25T00:08:19.708Z,12.17
2022-09-25T00:10:49.365Z,12.13
2022-09-25T00:13:20.272Z,12.11
2022-09-25T00:15:55.967Z,12.08
2022-09-25T00:18:43.831Z,12.03
2022-09-25T00:21:14.110Z,12.00
2022-09-25T00:23:42.163Z,11.97
2022-09-25T00:26:08.807Z,11.94
2022-09-25T00:28:36.610Z,11.92
2022-09-25T00:31:07.561Z,11.87
2022-09-25T00:33:35.227Z,11.85
2022-09-25T00:36:09.572Z,11.86
2022-09-25T00:38:37.687Z,11.86
2022-09-25T00:41:06.557Z,11.83
2022-09-25T00:43:40.350Z,11.79
2022-09-25T00:46:18.546Z,11.77
2022-09-25T00:48:59.932Z,11.75
2022-09-25T00:51:34.912Z,11.72
2022-09-25T00:54:05.341Z,11.65
2022-09-25T00:56:39.664Z,11.63
2022-09-25T00:59:09.856Z,11.60
2022-09-25T01:01:36.643Z,11.54
2022-09-25T01:04:03.154Z,11.49
2022-09-25T01:06:29.783Z,11.47
2022-09-25T01:08:57.018Z,11.45
2022-09-25T01:11:23.889Z,11.42
2022-09-25T01:13:55.093Z,11.42
2022-09-25T01:16:37.920Z,11.44
2022-09-25T01:19:38.622Z,11.42
2022-09-25T01:22:15.600Z,11.40
2022-09-25T01:24:58.295Z,11.37
2022-09-25T01:27:31.622Z,11.35
2022-09-25T01:30:05.658Z,11.35
2022-09-25T01:32:54.823Z,11.30
2022-09-25T01:35:34.626Z,11.19
2022-09-25T01:38:31.388Z,11.15
2022-09-25T01:41:20.602Z,11.15
2022-09-25T01:43:56.363Z,11.15
2022-09-25T01:46:28.776Z,11.16
2022-09-25T01:49:02.780Z,11.18
2022-09-25T01:51:35.821Z,11.16
2022-09-25T01:54:09.726Z,11.09
2022-09-25T01:56:46.486Z,11.06
2022-09-25T01:59:18.366Z,11.05
2022-09-25T02:01:47.467Z,11.06
2022-09-25T02:04:26.086Z,11.08
2022-09-25T02:06:56.409Z,11.10
2022-09-25T02:09:32.222Z,11.11
2022-09-25T02:12:05.251Z,11.12
2022-09-25T02:14:46.919Z,11.16
2022-09-25T02:17:41.950Z,11.20
2022-09-25T02:20:28.300Z,11.24
2022-09-25T02:22:55.313Z,11.24
2022-09-25T02:25:37.631Z,11.27
2022-09-25T02:28:04.195Z,11.21
2022-09-25T02:30:30.826Z,11.21
2022-09-25T02:32:58.075Z,11.23
2022-09-25T02:35:25.967Z,11.28
2022-09-25T02:37:55.718Z,11.32
2022-09-25T02:41:10.030Z,11.39
2022-09-25T02:43:57.520Z,11.44
2022-09-25T02:46:39.309Z,11.46
2022-09-25T02:49:22.403Z,11.49
2022-09-25T02:52:11.101Z,11.53
2022-09-25T02:54:45.531Z,11.55
2022-09-25T02:57:33.795Z,11.55
2022-09-25T03:00:05.190Z,11.53
2022-09-25T03:02:34.989Z,11.51
2022-09-25T03:05:03.598Z,11.51
2022-09-25T03:07:49.990Z,11.51
2022-09-25T03:10:18.463Z,11.52
2022-09-25T03:12:44.876Z,11.56
2022-09-25T03:15:12.193Z,11.60
2022-09-25T03:17:39.675Z,11.61
2022-09-25T03:20:07.194Z,11.61
2022-09-25T03:22:33.540Z,11.66
2022-09-25T03:24:59.876Z,11.70
2022-09-25T03:27:28.714Z,11.75
2022-09-25T03:29:55.302Z,11.76
2022-09-25T03:32:23.565Z,11.76
2022-09-25T03:34:50.276Z,11.77
2022-09-25T03:37:16.625Z,11.81
2022-09-25T03:39:42.956Z,11.84
2022-09-25T03:42:09.335Z,11.86
2022-09-25T03:44:35.702Z,11.86
2022-09-25T03:47:02.037Z,11.87
2022-09-25T03:49:28.378Z,11.90
2022-09-25T03:51:54.712Z,11.94
2022-09-25T03:54:21.026Z,11.94
2022-09-25T03:56:47.385Z,11.95
2022-09-25T03:59:13.875Z,11.95
2022-09-25T04:01:41.134Z,11.96
2022-09-25T04:04:07.607Z,11.98
2022-09-25T04:06:33.951Z,11.99
2022-09-25T04:09:00.277Z,11.95
2022-09-25T04:11:26.662Z,11.96
2022-09-25T04:13:53.139Z,11.99
2022-09-25T04:16:20.993Z,12.01
2022-09-25T04:18:47.461Z,11.99
2022-09-25T04:21:14.692Z,11.98
2022-09-25T04:23:42.017Z,12.00
2022-09-25T04:26:09.330Z,11.99
2022-09-25T04:28:35.990Z,12.01
2022-09-25T04:31:03.601Z,11.99
2022-09-25T04:33:48.394Z,12.01
2022-09-25T04:36:20.930Z,11.98
2022-09-25T04:38:48.335Z,12.01
2022-09-25T04:41:16.542Z,11.98
2022-09-25T04:43:43.355Z,12.03
2022-09-25T04:46:15.439Z,12.07
2022-09-25T04:48:46.250Z,12.10
2022-09-25T04:51:12.892Z,12.12
2022-09-25T04:53:40.545Z,12.13
2022-09-25T04:56:14.627Z,12.16
2022-09-25T04:58:49.891Z,12.13
2022-09-25T05:01:18.091Z,12.09
2022-09-25T05:03:48.085Z,12.07
2022-09-25T05:06:14.496Z,12.07
2022-09-25T05:08:40.826Z,12.09
2022-09-25T05:11:08.155Z,12.10
2022-09-25T05:13:34.481Z,12.11
2022-09-25T05:16:01.295Z,12.12
2022-09-25T05:18:27.757Z,12.14
2022-09-25T05:20:54.259Z,12.17
2022-09-25T05:23:21.655Z,12.14
2022-09-25T05:25:58.053Z,12.13
2022-09-25T05:28:24.774Z,12.15
2022-09-25T05:30:51.695Z,12.13
2022-09-25T05:33:18.966Z,12.14
2022-09-25T05:35:45.371Z,12.14
2022-09-25T05:38:12.321Z,12.13
2022-09-25T05:40:41.709Z,12.11
2022-09-25T05:43:08.533Z,12.10
2022-09-25T05:45:35.850Z,12.08
2022-09-25T05:48:04.684Z,12.09
2022-09-25T05:50:32.496Z,12.11
2022-09-25T05:53:04.032Z,12.13
2022-09-25T05:55:30.928Z,12.14
2022-09-25T05:58:04.020Z,12.18
2022-09-25T06:00:32.812Z,12.14
2022-09-25T06:03:02.434Z,12.17
2022-09-25T06:05:29.115Z,12.19
2022-09-25T06:07:55.925Z,12.19
2022-09-25T06:10:22.833Z,12.24
2022-09-25T06:12:49.193Z,12.24
2022-09-25T06:15:15.756Z,12.22
2022-09-25T06:17:42.079Z,12.18
2022-09-25T06:20:14.993Z,12.18
2022-09-25T06:22:44.253Z,12.16
2022-09-25T06:25:10.911Z,12.21
2022-09-25T06:27:37.509Z,12.22
2022-09-25T06:30:04.958Z,12.25
2022-09-25T06:32:31.281Z,12.28
2022-09-25T06:34:57.611Z,12.31
2022-09-25T06:37:23.949Z,12.32
2022-09-25T06:39:50.277Z,12.32
2022-09-25T06:42:16.685Z,12.33
2022-09-25T06:44:43.864Z,12.26
2022-09-25T06:47:16.234Z,12.24
2022-09-25T06:49:46.143Z,12.26
2022-09-25T06:52:12.600Z,12.27
2022-09-25T06:54:43.798Z,12.32
2022-09-25T06:57:12.431Z,12.33
2022-09-25T06:59:39.171Z,12.39
2022-09-25T07:02:24.437Z,12.43
2022-09-25T07:04:51.962Z,12.49
2022-09-25T07:07:21.214Z,12.54
2022-09-25T07:09:50.566Z,12.62
2022-09-25T07:12:18.420Z,12.63
2022-09-25T07:14:46.851Z,12.69
2022-09-25T07:17:14.327Z,12.71
2022-09-25T07:19:40.652Z,12.72
2022-09-25T07:22:07.025Z,12.74
2022-09-25T07:24:33.423Z,12.75
2022-09-25T07:26:59.774Z,12.73
2022-09-25T07:29:26.208Z,12.75
2022-09-25T07:31:52.565Z,12.77
2022-09-25T07:34:18.927Z,12.77
2022-09-25T07:36:46.142Z,12.75
2022-09-25T07:39:17.490Z,12.77
2022-09-25T07:41:45.150Z,12.82
2022-09-25T07:44:36.079Z,12.89
2022-09-25T07:46:58.058Z,12.95
2022-09-25T07:49:24.380Z,12.99
2022-09-25T07:51:50.708Z,12.96
2022-09-25T07:54:17.034Z,12.95
2022-09-25T07:56:43.414Z,13.00
2022-09-25T07:59:09.884Z,13.00
2022-09-25T08:01:40.979Z,13.03
2022-09-25T08:04:09.957Z,13.01
2022-09-25T08:06:36.654Z,13.00
2022-09-25T08:09:06.856Z,13.05
2022-09-25T08:11:36.758Z,13.14
2022-09-25T08:14:03.418Z,13.22
2022-09-25T08:16:29.834Z,13.34
2022-09-25T08:18:56.163Z,13.48
2022-09-25T08:21:22.545Z,13.57
2022-09-25T08:23:53.038Z,13.61
2022-09-25T08:26:21.188Z,13.67
2022-09-25T08:28:47.926Z,13.70
2022-09-25T08:31:14.738Z,13.74
2022-09-25T08:33:46.149Z,13.78
2022-09-25T08:36:12.717Z,13.80
2022-09-25T08:38:39.057Z,13.85
2022-09-25T08:41:28.018Z,13.86
2022-09-25T08:44:01.423Z,13.88
2022-09-25T08:47:22.529Z,13.90
2022-09-25T08:49:54.668Z,14.09
2022-09-25T08:52:22.710Z,14.23
2022-09-25T08:54:51.519Z,14.44
2022-09-25T08:57:37.936Z,14.65
2022-09-25T09:00:09.394Z,14.84
2022-09-25T09:02:46.847Z,15.09
2022-09-25T09:05:28.879Z,15.14
2022-09-25T09:08:02.442Z,15.17
2022-09-25T09:10:37.786Z,15.06
2022-09-25T09:13:26.997Z,15.06
2022-09-25T09:15:59.097Z,15.10
2022-09-25T09:18:27.712Z,15.28
2022-09-25T09:20:56.560Z,15.46
2022-09-25T09:23:49.138Z,15.38
2022-09-25T09:26:34.702Z,15.24
2022-09-25T09:29:26.007Z,15.09
2022-09-25T09:32:13.984Z,15.05
2022-09-25T09:35:06.228Z,15.07
2022-09-25T09:37:49.882Z,15.00
2022-09-25T09:40:37.283Z,15.06
2022-09-25T09:43:28.209Z,15.11
2022-09-25T09:46:04.381Z,15.21
2022-09-25T09:48:39.158Z,15.31
2022-09-25T09:51:45.158Z,15.37
2022-09-25T09:54:21.235Z,15.56
2022-09-25T09:56:50.326Z,15.61
2022-09-25T09:59:22.534Z,15.68
2022-09-25T10:02:00.624Z,15.61
2022-09-25T10:04:33.693Z,15.57
2022-09-25T10:07:05.846Z,15.55
2022-09-25T10:09:32.376Z,15.58
2022-09-25T10:12:07.424Z,15.61
2022-09-25T10:14:39.571Z,15.71
2022-09-25T10:17:08.753Z,15.74
2022-09-25T10:19:47.401Z,15.73
2022-09-25T10:22:17.401Z,15.67
2022-09-25T10:25:01.713Z,15.57
2022-09-25T10:27:41.255Z,15.48
2022-09-25T10:30:10.443Z,15.38
2022-09-25T10:32:46.918Z,15.32
2022-09-25T10:35:22.367Z,15.26
2022-09-25T10:37:53.089Z,15.28
2022-09-25T10:40:28.795Z,15.29
2022-09-25T10:43:20.492Z,15.27
2022-09-25T10:45:49.174Z,15.29
2022-09-25T10:48:48.637Z,15.38
2022-09-25T10:51:18.016Z,15.44
2022-09-25T10:54:10.574Z,15.42
2022-09-25T10:56:38.956Z,15.44
2022-09-25T10:59:20.863Z,15.56
2022-09-25T11:01:50.861Z,15.60
2022-09-25T11:04:28.012Z,15.65
2022-09-25T11:07:18.263Z,15.65
2022-09-25T11:09:45.254Z,15.55
2022-09-25T11:12:22.061Z,15.51
2022-09-25T11:14:58.121Z,15.45
2022-09-25T11:17:42.517Z,15.43
2022-09-25T11:20:16.142Z,15.40
2022-09-25T11:22:48.343Z,15.46
2022-09-25T11:26:00.043Z,15.54
2022-09-25T11:28:39.559Z,15.66
2022-09-25T11:31:32.807Z,15.74
2022-09-25T11:34:14.475Z,15.79
2022-09-25T11:36:49.213Z,15.71
2022-09-25T11:39:43.636Z,15.72
2022-09-25T11:42:24.534Z,15.71
2022-09-25T11:45:24.122Z,15.68
2022-09-25T11:47:57.619Z,15.69
2022-09-25T11:50:34.458Z,15.73
2022-09-25T11:53:26.916Z,15.76
2022-09-25T11:56:07.429Z,15.71
2022-09-25T11:58:53.189Z,15.67
2022-09-25T12:01:45.131Z,15.60
2022-09-25T12:04:49.125Z,15.60
2022-09-25T12:07:40.503Z,15.68
2022-09-25T12:10:23.940Z,15.67
2022-09-25T12:13:24.781Z,15.74
2022-09-25T12:16:02.461Z,15.92
2022-09-25T12:19:09.401Z,15.98
2022-09-25T12:21:47.798Z,16.05
2022-09-25T12:24:41.800Z,16.25
2022-09-25T12:27:19.033Z,16.47
2022-09-25T12:30:14.095Z,16.59
2022-09-25T12:33:14.939Z,16.46
2022-09-25T12:36:00.407Z,16.61
2022-09-25T12:38:43.850Z,16.66
2022-09-25T12:41:33.947Z,16.61
2022-09-25T12:44:11.265Z,16.51
2022-09-25T12:46:57.561Z,16.41
2022-09-25T12:49:35.035Z,16.35
2022-09-25T12:52:10.132Z,16.30
2022-09-25T12:54:42.418Z,16.34
2022-09-25T12:57:35.010Z,16.39
2022-09-25T13:00:12.803Z,16.41
2022-09-25T13:02:59.166Z,16.55
2022-09-25T13:05:37.747Z,16.89
2022-09-25T13:08:16.752Z,17.76
2022-09-25T13:10:56.916Z,18.72
2022-09-25T13:13:31.039Z,18.96
2022-09-25T13:15:59.713Z,18.77
2022-09-25T13:18:28.775Z,18.38
2022-09-25T13:21:01.567Z,18.11
2022-09-25T13:23:36.769Z,17.74
2022-09-25T13:26:18.974Z,17.40
2022-09-25T13:29:00.797Z,17.17
2022-09-25T13:31:30.234Z,16.94
2022-09-25T13:34:12.088Z,16.84
2022-09-25T13:36:57.326Z,16.76
2022-09-25T13:39:45.488Z,16.64
2022-09-25T13:42:20.586Z,16.60
2022-09-25T13:45:06.525Z,16.62
2022-09-25T13:47:36.522Z,16.80
2022-09-25T13:50:11.751Z,16.92
2022-09-25T13:52:41.058Z,17.08
2022-09-25T13:55:13.542Z,16.96
2022-09-25T13:58:02.139Z,16.66
2022-09-25T14:00:37.772Z,16.37
2022-09-25T14:03:05.307Z,16.12
2022-09-25T14:05:38.354Z,15.90
2022-09-25T14:08:13.909Z,15.71
2022-09-25T14:10:45.948Z,15.55
2022-09-25T14:13:14.661Z,15.43
2022-09-25T14:15:42.189Z,15.30
2022-09-25T14:18:17.460Z,15.21
2022-09-25T14:20:47.302Z,15.17
2022-09-25T14:23:15.609Z,15.08
2022-09-25T14:25:46.669Z,14.99
2022-09-25T14:28:22.788Z,14.89
2022-09-25T14:31:19.706Z,14.84
2022-09-25T14:34:13.950Z,14.81
2022-09-25T14:37:00.396Z,14.74
2022-09-25T14:39:45.143Z,14.68
2022-09-25T14:42:33.177Z,14.59
2022-09-25T14:45:29.249Z,14.54
2022-09-25T14:47:59.708Z,14.50
2022-09-25T14:50:31.851Z,14.52
2022-09-25T14:53:02.463Z,14.58
2022-09-25T14:55:36.678Z,14.75
2022-09-25T14:58:09.066Z,14.89
2022-09-25T15:00:43.707Z,14.96
2022-09-25T15:03:13.049Z,15.02
2022-09-25T15:05:41.498Z,15.15
2022-09-25T15:08:39.771Z,15.25
2022-09-25T15:11:12.904Z,15.52
2022-09-25T15:13:39.598Z,15.90
2022-09-25T15:16:31.604Z,16.69
2022-09-25T15:19:01.199Z,17.57
2022-09-25T15:21:33.473Z,18.55
2022-09-25T15:24:13.599Z,19.57
2022-09-25T15:26:45.898Z,20.60
2022-09-25T15:29:18.113Z,21.99
2022-09-25T15:31:51.146Z,24.14
2022-09-25T15:34:24.061Z,26.40
2022-09-25T15:36:51.913Z,27.84
2022-09-25T15:39:24.184Z,27.97
2022-09-25T15:41:51.086Z,27.64
2022-09-25T15:44:20.674Z,27.99
2022-09-25T15:46:50.921Z,28.87
2022-09-25T15:49:27.894Z,27.70
2022-09-25T15:52:01.214Z,28.06
2022-09-25T15:54:44.364Z,28.33
2022-09-25T15:57:15.187Z,28.17
2022-09-25T16:00:04.808Z,26.23
2022-09-25T16:02:53.642Z,23.44
2022-09-25T16:05:28.983Z,21.02
2022-09-25T16:08:33.494Z,19.27
2022-09-25T16:11:06.178Z,17.96
2022-09-25T16:13:33.035Z,17.19
2022-09-25T16:15:59.625Z,16.58
2022-09-25T16:18:39.729Z,16.03
2022-09-25T16:21:12.975Z,15.64
2022-09-25T16:23:42.242Z,15.36
2022-09-25T16:26:22.461Z,15.09
2022-09-25T16:29:00.842Z,14.90
2022-09-25T16:31:27.473Z,14.71
2022-09-25T16:33:57.224Z,14.60
2022-09-25T16:36:26.932Z,14.53
2022-09-25T16:39:08.335Z,14.47
2022-09-25T16:41:39.952Z,14.38
2022-09-25T16:44:20.931Z,14.58
2022-09-25T16:47:05.666Z,15.03
2022-09-25T16:49:33.706Z,15.35
2022-09-25T16:52:03.864Z,15.10
2022-09-25T16:54:32.449Z,14.76
2022-09-25T16:57:00.208Z,14.50
2022-09-25T16:59:28.341Z,14.30
2022-09-25T17:02:01.802Z,14.18
2022-09-25T17:04:30.399Z,14.03
2022-09-25T17:06:58.480Z,13.95
2022-09-25T17:09:28.154Z,13.86
2022-09-25T17:12:00.992Z,13.74
2022-09-25T17:14:28.637Z,13.62
2022-09-25T17:16:56.469Z,13.49
2022-09-25T17:19:23.482Z,13.40
2022-09-25T17:21:51.578Z,13.33
2022-09-25T17:24:20.799Z,13.24
2022-09-25T17:26:47.424Z,13.15
2022-09-25T17:29:14.216Z,13.11
2022-09-25T17:31:40.890Z,13.03
2022-09-25T17:34:16.067Z,12.97
2022-09-25T17:36:42.702Z,12.94
2022-09-25T17:39:09.038Z,12.92
2022-09-25T17:41:36.700Z,12.86
2022-09-25T17:44:04.584Z,12.85
2022-09-25T17:46:33.719Z,12.89
2022-09-25T17:49:00.673Z,12.91
2022-09-25T17:51:29.054Z,12.93
2022-09-25T17:53:56.651Z,12.90
2022-09-25T17:56:24.817Z,12.89
2022-09-25T17:58:52.480Z,12.89
2022-09-25T18:01:22.181Z,12.88
2022-09-25T18:03:53.714Z,12.87
2022-09-25T18:06:20.134Z,12.88
2022-09-25T18:08:47.778Z,12.86
2022-09-25T18:11:15.331Z,12.89
2022-09-25T18:13:42.174Z,12.88
2022-09-25T18:16:27.374Z,12.95
2022-09-25T18:19:12.369Z,12.96
2022-09-25T18:21:57.401Z,12.95
2022-09-25T18:24:23.777Z,12.96
2022-09-25T18:26:53.370Z,12.95
2022-09-25T18:29:20.674Z,12.94
2022-09-25T18:31:47.706Z,12.88
2022-09-25T18:34:15.102Z,12.88
2022-09-25T18:36:42.291Z,12.80
2022-09-25T18:39:08.838Z,12.78
2022-09-25T18:41:39.082Z,12.74
2022-09-25T18:44:07.247Z,12.69
2022-09-25T18:46:35.798Z,12.66
2022-09-25T18:49:02.284Z,12.62
2022-09-25T18:51:28.625Z,12.62
2022-09-25T18:53:57.944Z,12.60
2022-09-25T18:56:24.317Z,12.57
2022-09-25T18:58:51.901Z,12.51
2022-09-25T19:01:18.434Z,12.43
2022-09-25T19:03:50.366Z,12.40
2022-09-25T19:06:16.712Z,12.33
2022-09-25T19:08:43.047Z,12.28
2022-09-25T19:11:13.929Z,12.22
2022-09-25T19:13:42.106Z,12.16
2022-09-25T19:16:09.545Z,12.11
2022-09-25T19:18:36.376Z,12.06
2022-09-25T19:21:03.830Z,12.08
2022-09-25T19:23:35.259Z,12.08
2022-09-25T19:26:03.768Z,12.05
2022-09-25T19:28:32.100Z,12.04
2022-09-25T19:30:58.519Z,12.03
2022-09-25T19:33:25.728Z,12.04
2022-09-25T19:36:06.046Z,11.97
2022-09-25T19:38:36.965Z,12.09
2022-09-25T19:41:10.688Z,12.08
2022-09-25T19:43:37.438Z,12.08
2022-09-25T19:46:04.525Z,12.07
2022-09-25T19:48:32.324Z,12.11
2022-09-25T19:50:58.769Z,12.12
2022-09-25T19:53:25.160Z,12.13
2022-09-25T19:55:52.928Z,12.11
2022-09-25T19:58:23.128Z,12.12
2022-09-25T20:00:50.653Z,12.14
2022-09-25T20:03:17.915Z,12.14
2022-09-25T20:05:44.701Z,12.15
2022-09-25T20:08:11.318Z,12.17
2022-09-25T20:10:38.146Z,12.17
2022-09-25T20:13:05.309Z,12.18
2022-09-25T20:15:32.268Z,12.18
2022-09-25T20:17:59.394Z,12.17
2022-09-25T20:20:27.513Z,12.11
2022-09-25T20:22:53.917Z,12.15
2022-09-25T20:25:20.805Z,12.13
2022-09-25T20:27:52.180Z,12.10
2022-09-25T20:30:19.013Z,12.09
2022-09-25T20:32:45.797Z,12.08
2022-09-25T20:35:12.655Z,12.07
2022-09-25T20:37:39.090Z,12.05
2022-09-25T20:40:05.780Z,12.01
2022-09-25T20:42:33.788Z,11.98
2022-09-25T20:45:00.149Z,11.95
2022-09-25T20:47:33.683Z,11.94
2022-09-25T20:50:00.713Z,11.92
2022-09-25T20:52:27.754Z,11.88
2022-09-25T20:54:54.194Z,11.84
2022-09-25T20:57:20.587Z,11.84
2022-09-25T20:59:46.932Z,11.81
2022-09-25T21:02:13.793Z,11.81
2022-09-25T21:04:40.309Z,11.81
2022-09-25T21:07:06.727Z,11.80
2022-09-25T21:09:33.099Z,11.80
2022-09-25T21:11:59.859Z,11.82
2022-09-25T21:14:28.418Z,11.84
2022-09-25T21:16:58.947Z,11.82
2022-09-25T21:19:26.975Z,11.90
2022-09-25T21:21:53.447Z,11.91
2022-09-25T21:24:21.008Z,11.92
2022-09-25T21:26:47.805Z,11.89
2022-09-25T21:29:16.060Z,11.89
2022-09-25T21:31:48.438Z,11.89
2022-09-25T21:34:16.085Z,11.92
2022-09-25T21:36:43.499Z,11.93
2022-09-25T21:39:09.890Z,11.96
2022-09-25T21:41:36.344Z,11.98
2022-09-25T21:44:06.857Z,11.98
2022-09-25T21:46:34.542Z,11.98
2022-09-25T21:49:03.361Z,12.01
2022-09-25T21:51:33.031Z,12.04
2022-09-25T21:54:00.935Z,12.00
2022-09-25T21:56:29.857Z,11.96
2022-09-25T21:58:57.635Z,11.94
2022-09-25T22:01:27.157Z,11.93
2022-09-25T22:03:56.652Z,11.94
2022-09-25T22:06:28.465Z,11.90
2022-09-25T22:08:57.321Z,11.88
2022-09-25T22:11:24.368Z,11.88
2022-09-25T22:13:51.579Z,11.89
2022-09-25T22:16:22.824Z,11.87
2022-09-25T22:18:53.584Z,11.88
2022-09-25T22:21:22.804Z,11.85
2022-09-25T22:23:49.864Z,11.81
2022-09-25T22:26:17.321Z,11.83
2022-09-25T22:28:44.508Z,11.83
2022-09-25T22:31:16.967Z,11.83
2022-09-25T22:33:44.615Z,11.83
2022-09-25T22:36:12.390Z,11.80
2022-09-25T22:38:39.691Z,11.78
2022-09-25T22:41:11.519Z,11.77
2022-09-25T22:43:39.144Z,11.74
2022-09-25T22:46:06.843Z,11.77
2022-09-25T22:48:34.044Z,11.77
2022-09-25T22:51:10.136Z,11.76
2022-09-25T22:53:37.242Z,11.72
2022-09-25T22:56:20.077Z,11.70
2022-09-25T22:58:49.713Z,11.70
2022-09-25T23:01:46.382Z,11.69
2022-09-25T23:04:16.012Z,11.66
2022-09-25T23:06:43.097Z,11.60
2022-09-25T23:09:20.151Z,11.63
2022-09-25T23:11:46.902Z,11.60
2022-09-25T23:14:16.855Z,11.62
2022-09-25T23:16:45.131Z,11.60
2022-09-25T23:19:12.043Z,11.60
2022-09-25T23:21:39.122Z,11.60
2022-09-25T23:24:08.376Z,11.61
2022-09-25T23:26:34.886Z,11.59
2022-09-25T23:29:02.106Z,11.61
2022-09-25T23:31:30.526Z,11.64
2022-09-25T23:34:01.198Z,11.61
2022-09-25T23:36:29.048Z,11.59
2022-09-25T23:38:58.293Z,11.51
2022-09-25T23:41:30.024Z,11.55
2022-09-25T23:43:57.492Z,11.55
2022-09-25T23:46:26.302Z,11.55
2022-09-25T23:48:53.701Z,11.52
2022-09-25T23:51:22.522Z,11.51
2022-09-25T23:53:49.853Z,11.50
2022-09-25T23:56:21.824Z,11.49
2022-09-25T23:58:49.380Z,11.41
